Speaks, Texas
Current Conditions -  °F | °C
As of 4:15 AM on Wednesday 26 Nov 2014 (Local Time) from K66R Reporting Station
Clear Clear  
Wind Chill:   Ceiling: Unl
Heat Index:   Visibility: 10mi
Dew Point:   Wind: 6mph
Humidity: 81%   Direction: 210°SSW
Pressure: 30.19"   Gusts: NA
Location:  29.25°N, 96.7°W
Report Text: K66R 261015Z AUTO 21005KT 10SM CLR 06/03 A3019 RMK AO2 T00600030
Loading
Personal Weather Stations






























Interactive Weather Map New forecast layout! Learn more

10-Day Weather Forecast

Advertisements
Track Severe Weather on mobile